Time;durP1;ratioP1;P1;durP2;ratioP2;P2;SDS_P1;SDS_P2;PMS_P1;PMS_P2;Temp;Humidity;BMP_temperature;BMP_pressure;BME280_temperature;BME280_humidity;BME280_pressure;Samples;Min_cycle;Max_cycle;Signal;HPM_P1;HPM_P2
2022/03/26 06:01:45;;;;;;;43.10;23.65;;;4.70;89.20;;;;;;6127234;23;20165;31
2022/03/26 06:04:11;;;;;;;39.30;22.90;;;4.90;88.50;;;;;;6138576;23;20025;-79
2022/03/26 06:06:37;;;;;;;45.92;24.50;;;5.00;87.70;;;;;;6164265;23;20017;-78
2022/03/26 06:09:04;;;;;;;43.47;24.65;;;5.00;89.00;;;;;;6164742;23;20008;-81
2022/03/26 06:11:29;;;;;;;41.28;24.08;;;5.00;89.40;;;;;;6164527;23;20005;-81
2022/03/26 06:13:55;;;;;;;41.33;23.33;;;5.00;89.10;;;;;;6163401;23;20002;-81
2022/03/26 06:16:47;;;;;;;43.50;24.55;;;5.10;87.80;;;;;;6145470;23;20306;-80
2022/03/26 06:19:42;;;;;;;45.85;23.40;;;5.30;87.60;;;;;;6137979;23;20266;-80
2022/03/26 06:22:55;;;;;;;45.63;25.00;;;5.40;87.70;;;;;;6161040;23;20295;-80
2022/03/26 06:26:06;;;;;;;45.25;25.45;;;5.50;87.90;;;;;;6136510;23;20005;-81
2022/03/26 06:36:30;;;;;;;42.67;23.63;;;5.90;84.60;;;;;;6163819;23;20008;-80
2022/03/26 06:43:24;;;;;;;;;;;;;;;;;;;;;
2022/03/26 06:55:07;;;;;;;;;;;;;;;;;;;;;
2022/03/26 06:59:04;;;;;;;;;;;;;;;;;;;;;
2022/03/26 07:01:47;;;;;;;45.45;25.25;;;7.30;79.20;;;;;;6017502;23;20018;-80
2022/03/26 07:04:17;;;;;;;42.15;22.73;;;7.40;79.10;;;;;;6031320;23;20335;-80
2022/03/26 07:06:43;;;;;;;41.17;23.90;;;7.50;77.60;;;;;;6102104;23;20223;-80
2022/03/26 07:09:11;;;;;;;43.83;22.67;;;7.60;77.40;;;;;;6102521;23;20022;-80
2022/03/26 07:11:43;;;;;;;44.97;23.98;;;7.60;77.80;;;;;;6078370;23;20018;-80
2022/03/26 07:14:09;;;;;;;49.33;24.27;;;7.70;78.10;;;;;;6103477;23;20104;-80
2022/03/26 07:16:34;;;;;;;40.53;23.98;;;7.80;78.20;;;;;;6104135;23;20014;-80
2022/03/26 07:19:00;;;;;;;45.17;24.30;;;8.00;77.70;;;;;;6103029;23;20049;-79
2022/03/26 07:21:26;;;;;;;47.60;24.60;;;8.10;77.30;;;;;;6078324;23;20006;-79
2022/03/26 07:23:53;;;;;;;44.47;23.55;;;8.20;77.10;;;;;;6103473;23;20022;-79
2022/03/26 07:26:20;;;;;;;41.90;23.42;;;8.30;76.80;;;;;;6161175;23;20235;-79
2022/03/26 07:28:46;;;;;;;43.10;24.20;;;8.40;75.80;;;;;;6163243;23;19993;-78
2022/03/26 07:31:12;;;;;;;40.97;22.63;;;8.50;75.70;;;;;;6163207;23;20020;-80
2022/03/26 07:33:37;;;;;;;41.90;23.55;;;8.60;75.40;;;;;;6162879;23;20321;-80
2022/03/26 07:36:03;;;;;;;40.55;23.35;;;8.70;75.50;;;;;;6162435;23;20009;-78
2022/03/26 07:38:29;;;;;;;41.42;21.98;;;8.70;75.00;;;;;;6161505;23;20017;-79
2022/03/26 07:40:57;;;;;;;40.55;21.88;;;8.80;74.40;;;;;;6161941;23;20041;-79
2022/03/26 07:43:23;;;;;;;42.80;22.38;;;8.90;73.40;;;;;;6161748;23;20009;-79
2022/03/26 07:45:49;;;;;;;39.05;22.33;;;9.00;72.90;;;;;;6136625;23;20001;-81
2022/03/26 07:52:20;;;;;;;40.33;20.85;;;9.20;72.00;;;;;;6181460;23;20088;-80
2022/03/26 07:54:46;;;;;;;40.00;21.10;;;9.40;71.50;;;;;;6132610;23;20071;-80
2022/03/26 07:57:11;;;;;;;42.40;22.38;;;9.60;70.90;;;;;;6180787;23;20028;-80
2022/03/26 07:59:37;;;;;;;36.88;22.08;;;9.70;70.80;;;;;;6180907;23;20005;-80
2022/03/26 08:02:03;;;;;;;37.75;21.23;;;9.80;70.20;;;;;;6166279;23;20048;-80
2022/03/26 08:04:29;;;;;;;38.28;21.45;;;9.90;69.80;;;;;;6167016;23;20076;-80
2022/03/26 08:06:55;;;;;;;39.67;20.92;;;9.90;69.30;;;;;;6166570;23;20009;-80
2022/03/26 08:09:23;;;;;;;40.72;22.33;;;10.10;69.40;;;;;;6163909;23;20139;-78
2022/03/26 08:11:49;;;;;;;39.72;21.45;;;10.10;68.40;;;;;;6164406;23;20176;-79
2022/03/26 08:14:21;;;;;;;38.45;21.48;;;10.10;68.30;;;;;;6140531;23;20020;-81
2022/03/26 08:16:47;;;;;;;40.05;21.38;;;10.30;68.60;;;;;;6166282;23;20025;-80
2022/03/26 08:19:13;;;;;;;38.03;21.90;;;10.40;67.60;;;;;;6140369;23;19997;-80
2022/03/26 08:21:39;;;;;;;39.63;22.17;;;10.40;68.10;;;;;;6140560;23;20299;-80
2022/03/26 08:24:05;;;;;;;36.92;20.60;;;10.40;67.90;;;;;;6166350;23;20044;-80
2022/03/26 08:26:31;;;;;;;37.25;20.90;;;10.50;67.50;;;;;;6164060;23;20002;-80
2022/03/26 08:28:59;;;;;;;38.30;21.63;;;10.60;67.40;;;;;;6140654;23;20032;-80
2022/03/26 08:31:28;;;;;;;37.75;20.23;;;10.80;66.90;;;;;;6162036;23;20302;-80
2022/03/26 08:37:42;;;;;;;38.95;20.98;;;11.10;65.30;;;;;;6144837;23;20058;-80
2022/03/26 08:40:09;;;;;;;39.67;20.00;;;11.10;64.80;;;;;;6075343;23;20026;-81
2022/03/26 08:43:15;;;;;;;39.92;20.65;;;11.20;64.50;;;;;;6050895;23;20304;-80
2022/03/26 08:46:19;;;;;;;39.25;21.08;;;11.20;64.10;;;;;;6049661;23;20045;-80
2022/03/26 08:48:49;;;;;;;41.40;20.83;;;11.20;64.70;;;;;;6056096;23;20011;-80
2022/03/26 08:51:17;;;;;;;33.40;19.70;;;11.30;64.20;;;;;;6075084;23;20319;-81
2022/03/26 08:54:03;;;;;;;38.97;21.95;;;11.50;64.50;;;;;;6051368;23;20003;-80
2022/03/26 08:56:29;;;;;;;36.22;20.27;;;11.60;63.50;;;;;;6075058;23;20023;-80
2022/03/26 08:59:21;;;;;;;40.13;21.50;;;11.80;63.00;;;;;;6051203;23;19991;-80
2022/03/26 09:01:50;;;;;;;40.00;20.95;;;11.80;63.20;;;;;;6037255;23;20055;-80
2022/03/26 09:04:21;;;;;;;37.63;21.13;;;11.90;63.60;;;;;;6051790;23;20023;-80
2022/03/26 09:07:14;;;;;;;40.28;21.23;;;12.00;63.50;;;;;;6051964;23;20011;-79
2022/03/26 09:10:03;;;;;;;39.15;21.55;;;12.20;63.60;;;;;;6028244;23;20009;-78
2022/03/26 09:12:41;;;;;;;38.63;21.38;;;12.30;63.20;;;;;;6051744;23;20038;-79
2022/03/26 09:15:41;;;;;;;38.75;22.25;;;12.40;62.70;;;;;;6075650;23;20155;-77
2022/03/26 09:18:09;;;;;;;37.47;20.27;;;12.50;62.90;;;;;;6158604;23;20318;-77
2022/03/26 09:20:36;;;;;;;37.58;21.25;;;12.50;62.50;;;;;;6135085;23;20045;-79
2022/03/26 09:23:02;;;;;;;37.53;21.50;;;12.60;63.10;;;;;;6135866;23;20009;-79
2022/03/26 09:25:29;;;;;;;37.83;21.48;;;12.70;62.50;;;;;;6158247;23;19990;-79
2022/03/26 09:27:55;;;;;;;39.85;22.30;;;12.70;62.60;;;;;;6158984;23;20196;-79
2022/03/26 09:30:24;;;;;;;37.95;22.23;;;12.80;62.70;;;;;;6135817;23;20006;-80
2022/03/26 09:32:50;;;;;;;39.80;22.40;;;12.80;62.40;;;;;;6159289;23;20014;-78
2022/03/26 09:35:16;;;;;;;42.25;23.17;;;12.90;62.30;;;;;;6135696;23;20026;-78
2022/03/26 09:37:43;;;;;;;42.10;23.10;;;13.00;62.40;;;;;;6136141;23;19998;-78
2022/03/26 09:40:10;;;;;;;40.80;22.65;;;13.20;63.00;;;;;;6134868;23;20133;-80
2022/03/26 09:42:37;;;;;;;39.22;22.98;;;13.30;62.30;;;;;;6135020;23;20061;-81
2022/03/26 09:45:06;;;;;;;42.72;22.98;;;13.50;61.70;;;;;;6134939;23;20048;-79
2022/03/26 09:47:35;;;;;;;;;;;13.70;61.70;;;;;;6159006;23;20005;-78
2022/03/26 09:50:03;;;;;;;37.38;22.23;;;13.90;61.60;;;;;;6135899;23;19977;-81
2022/03/26 09:52:29;;;;;;;41.03;22.58;;;14.00;60.80;;;;;;6157906;23;20014;-80
2022/03/26 09:54:58;;;;;;;40.92;22.92;;;14.10;60.00;;;;;;6135804;23;20002;-80
2022/03/26 09:57:24;;;;;;;40.45;22.65;;;14.10;60.10;;;;;;6134001;23;20025;-79
2022/03/26 09:59:50;;;;;;;36.60;21.73;;;14.30;60.30;;;;;;6158758;23;20088;-79
2022/03/26 10:02:16;;;;;;;42.33;22.80;;;14.40;60.10;;;;;;6138712;23;20010;-82
2022/03/26 10:04:44;;;;;;;37.00;21.20;;;14.50;59.80;;;;;;6163168;23;20024;-82
2022/03/26 10:07:35;;;;;;;38.78;21.85;;;14.70;59.80;;;;;;6139336;23;20009;-80
2022/03/26 10:10:08;;;;;;;42.92;23.85;;;14.90;59.30;;;;;;6163914;23;20322;-79
2022/03/26 10:12:36;;;;;;;41.13;23.30;;;15.00;58.70;;;;;;6165037;23;20005;-80
2022/03/26 10:15:05;;;;;;;40.55;23.80;;;15.20;58.40;;;;;;6161994;23;19998;-80
2022/03/26 10:17:36;;;;;;;41.78;24.00;;;15.30;58.40;;;;;;6139346;23;20000;-78
2022/03/26 10:20:28;;;;;;;39.72;24.00;;;15.40;57.30;;;;;;6162935;23;20025;-80
2022/03/26 10:24:10;;;;;;;39.28;22.60;;;15.50;57.30;;;;;;6163665;23;20021;-79
2022/03/26 10:26:36;;;;;;;39.22;22.45;;;15.60;57.70;;;;;;6130533;23;20044;-80
2022/03/26 10:29:07;;;;;;;37.55;22.60;;;15.80;57.60;;;;;;6137594;23;20009;-79
2022/03/26 10:35:14;;;;;;;40.80;23.35;;;16.20;56.90;;;;;;6164554;23;20227;-80
2022/03/26 10:37:51;;;;;;;37.67;21.85;;;16.40;55.50;;;;;;6138168;23;20258;-80
2022/03/26 10:40:37;;;;;;;38.47;22.52;;;16.60;54.60;;;;;;6138131;23;20001;-81
2022/03/26 10:43:14;;;;;;;42.95;23.63;;;16.80;54.70;;;;;;6113855;23;20005;-81
2022/03/26 10:46:24;;;;;;;43.55;23.73;;;16.80;56.20;;;;;;6136600;23;20180;-80
2022/03/26 10:49:02;;;;;;;40.88;23.17;;;16.90;55.40;;;;;;6122949;23;20057;-82
2022/03/26 10:51:38;;;;;;;37.50;22.15;;;17.10;54.70;;;;;;6162211;23;20025;-81
2022/03/26 10:54:33;;;;;;;40.92;23.15;;;17.40;53.50;;;;;;6162261;23;20016;-84
2022/03/26 10:57:01;;;;;;;38.08;21.85;;;17.60;53.30;;;;;;6160502;23;20021;-81
2022/03/26 10:59:28;;;;;;;33.30;21.13;;;17.90;51.50;;;;;;6162710;23;20008;-81
2022/03/26 11:01:54;;;;;;;35.03;20.05;;;18.10;51.00;;;;;;6163122;23;20020;-83
2022/03/26 11:05:10;;;;;;;35.10;21.23;;;18.30;50.40;;;;;;6163779;23;20040;-82
2022/03/26 11:07:41;;;;;;;39.30;22.05;;;18.40;50.20;;;;;;6163232;23;19997;-80
2022/03/26 11:10:09;;;;;;;36.55;21.13;;;18.80;49.50;;;;;;6162551;23;20008;-82
2022/03/26 11:20:52;;;;;;;34.40;22.63;;;21.30;46.30;;;;;;6160997;23;20306;-81
2022/03/26 11:23:52;;;;;;;31.67;21.25;;;22.10;45.40;;;;;;6138218;23;20399;-81
2022/03/26 11:26:44;;;;;;;30.73;20.65;;;23.00;44.50;;;;;;6137703;23;20200;-81
2022/03/26 11:29:49;;;;;;;31.90;22.02;;;23.80;44.00;;;;;;6162745;23;20024;-81
2022/03/26 11:32:49;;;;;;;31.25;22.17;;;24.90;42.10;;;;;;6138801;23;20021;-82
2022/03/26 11:51:23;;;;;;;25.23;17.35;;;28.40;37.40;;;;;;6045029;23;20014;-83
2022/03/26 12:01:28;;;;;;;24.10;17.02;;;29.50;37.10;;;;;;6021086;23;21843;-83
2022/03/26 12:07:16;;;;;;;26.20;18.73;;;30.00;36.90;;;;;;6021689;23;20007;-84
2022/03/26 12:09:53;;;;;;;;;;;30.40;36.20;;;;;;6045643;23;20066;-84
2022/03/26 12:16:52;;;;;;;19.85;14.18;;;30.70;36.60;;;;;;6063861;23;20295;-84
2022/03/26 12:48:07;;;;;;;16.85;13.40;;;33.80;32.90;;;;;;6134229;23;20017;-82
2022/03/26 12:51:08;;;;;;;17.48;14.48;;;34.70;33.00;;;;;;6158426;23;20056;-87
2022/03/26 12:54:08;;;;;;;16.13;13.15;;;36.00;33.50;;;;;;6162028;23;20029;-85
2022/03/26 13:04:00;;;;;;;14.13;11.40;;;34.50;32.30;;;;;;6135840;23;20017;-84
2022/03/26 13:06:33;;;;;;;17.23;11.82;;;34.00;33.30;;;;;;6137237;23;20045;-83
2022/03/26 13:09:13;;;;;;;15.82;12.50;;;34.20;32.90;;;;;;6113775;23;20304;-83
2022/03/26 13:16:00;;;;;;;16.10;11.57;;;35.20;32.20;;;;;;6165476;23;20012;-83
2022/03/26 13:18:39;;;;;;;15.82;12.23;;;37.30;31.90;;;;;;6169010;23;20008;-86
2022/03/26 13:25:37;;;;;;;17.55;11.48;;;37.80;31.90;;;;;;6170516;23;20064;-86
2022/03/26 13:28:38;;;;;;;13.60;11.20;;;37.70;30.50;;;;;;6193160;23;20051;-84
2022/03/26 13:31:27;;;;;;;15.13;12.35;;;36.80;31.00;;;;;;6140652;23;20259;-85
2022/03/26 13:33:56;;;;;;;14.48;11.57;;;37.70;30.80;;;;;;6167293;23;20017;-84
2022/03/26 13:44:04;;;;;;;13.38;11.30;;;37.70;30.80;;;;;;6224010;23;20015;-83
2022/03/26 13:46:40;;;;;;;14.60;12.02;;;38.90;30.60;;;;;;6219773;23;20032;-83
2022/03/26 13:49:06;;;;;;;15.70;12.20;;;38.60;31.00;;;;;;6197401;23;20008;-84
2022/03/26 13:51:58;;;;;;;16.40;12.77;;;38.00;31.30;;;;;;6223164;23;20012;-82
2022/03/26 13:54:34;;;;;;;14.48;12.15;;;36.00;31.60;;;;;;6223514;23;20027;-82
2022/03/26 13:57:03;;;;;;;18.85;13.02;;;35.60;31.90;;;;;;6223008;23;20008;-84
2022/03/26 13:59:29;;;;;;;16.63;13.07;;;35.70;31.90;;;;;;6223202;23;20009;-81
2022/03/26 14:01:58;;;;;;;14.63;12.07;;;36.30;31.80;;;;;;6223374;23;20073;-81
2022/03/26 14:04:25;;;;;;;16.17;12.15;;;36.60;31.40;;;;;;6222986;23;20317;-81
2022/03/26 14:06:55;;;;;;;15.15;11.75;;;37.50;31.40;;;;;;6224146;23;20005;-84
2022/03/26 14:09:30;;;;;;;16.02;12.43;;;37.60;31.50;;;;;;6224993;23;20095;-82
2022/03/26 14:16:04;;;;;;;14.10;11.65;;;36.30;31.40;;;;;;6223985;23;20235;-81
2022/03/26 14:18:30;;;;;;;15.20;12.10;;;37.40;31.80;;;;;;6200776;23;20023;-82
2022/03/26 14:20:56;;;;;;;15.65;11.95;;;37.50;31.20;;;;;;6197711;23;20008;-80
2022/03/26 14:23:27;;;;;;;13.70;11.43;;;37.60;30.90;;;;;;6223136;23;20005;-79
2022/03/26 14:25:53;;;;;;;15.60;11.77;;;37.90;31.10;;;;;;6222230;23;20036;-81
2022/03/26 14:28:22;;;;;;;12.70;11.35;;;38.30;30.70;;;;;;6198347;23;20008;-81
2022/03/26 14:35:10;;;;;;;17.85;11.63;;;38.20;31.10;;;;;;6224011;23;20063;-83
2022/03/26 14:37:36;;;;;;;16.30;12.52;;;36.60;31.30;;;;;;6166909;23;20019;-82
2022/03/26 14:40:28;;;;;;;17.25;11.32;;;36.50;31.00;;;;;;6167391;23;20009;-81
2022/03/26 14:42:57;;;;;;;13.43;11.45;;;36.80;30.90;;;;;;6191525;23;20011;-82
2022/03/26 14:45:23;;;;;;;13.93;10.90;;;36.50;31.10;;;;;;6193304;23;20088;-82
2022/03/26 14:47:49;;;;;;;17.88;12.50;;;36.60;31.20;;;;;;6191735;23;20012;-81
2022/03/26 14:50:14;;;;;;;14.98;11.55;;;35.70;31.20;;;;;;6190939;23;19985;-81
2022/03/26 14:52:41;;;;;;;15.70;11.77;;;35.40;31.40;;;;;;6191618;23;20316;-81
2022/03/26 14:58:46;;;;;;;15.13;11.57;;;36.10;31.10;;;;;;6102249;23;20045;-80
2022/03/26 15:01:14;;;;;;;15.38;11.55;;;36.20;31.50;;;;;;6102017;23;20350;-83
2022/03/26 15:03:40;;;;;;;16.17;11.38;;;36.00;31.00;;;;;;6078192;23;20013;-80
2022/03/26 15:06:06;;;;;;;14.30;10.63;;;35.90;31.20;;;;;;6102759;23;20308;-82
2022/03/26 15:08:32;;;;;;;13.80;10.73;;;35.80;31.10;;;;;;6102787;23;20034;-83
2022/03/26 15:11:10;;;;;;;18.23;10.95;;;35.40;31.30;;;;;;6078547;23;20019;-81
2022/03/26 15:13:35;;;;;;;16.27;10.98;;;35.60;31.10;;;;;;6102617;23;20026;-82
2022/03/26 15:16:01;;;;;;;15.18;10.98;;;35.60;30.90;;;;;;6063677;23;20013;-85
2022/03/26 15:18:48;;;;;;;13.65;10.15;;;36.00;31.00;;;;;;6102821;23;20082;-84
2022/03/26 15:21:13;;;;;;;14.90;11.10;;;36.00;30.90;;;;;;6102225;23;20006;-81
2022/03/26 15:23:58;;;;;;;16.95;10.82;;;35.10;31.10;;;;;;6102445;23;20014;-82
2022/03/26 15:27:03;;;;;;;13.77;10.43;;;35.40;31.10;;;;;;6067086;23;20018;-83
2022/03/26 15:29:50;;;;;;;13.30;11.13;;;35.70;31.10;;;;;;6025894;23;20014;-81
2022/03/26 15:32:35;;;;;;;16.00;10.73;;;34.80;31.00;;;;;;6025838;23;20309;-82
2022/03/26 15:38:40;;;;;;;15.57;11.52;;;34.80;30.90;;;;;;6221655;23;20009;-86
2022/03/26 15:41:19;;;;;;;13.55;10.68;;;34.50;31.10;;;;;;6131597;23;20009;-82
2022/03/26 15:43:57;;;;;;;14.02;11.05;;;34.70;31.30;;;;;;6107048;23;20272;-82
2022/03/26 15:46:56;;;;;;;15.93;11.32;;;34.50;31.40;;;;;;6096862;23;20030;-85
2022/03/26 15:50:11;;;;;;;16.77;11.88;;;34.30;31.30;;;;;;6112283;23;20243;-83
2022/03/26 15:52:57;;;;;;;14.70;10.45;;;33.70;31.80;;;;;;6052884;23;20025;-85
2022/03/26 15:55:27;;;;;;;17.20;11.93;;;33.60;32.10;;;;;;6060624;23;20134;-82
2022/03/26 15:57:59;;;;;;;16.60;12.20;;;33.50;32.00;;;;;;6073243;23;20006;-81
2022/03/26 16:00:33;;;;;;;17.13;11.68;;;33.10;32.10;;;;;;6024880;23;20304;-79
2022/03/26 16:06:51;;;;;;;15.68;11.43;;;33.20;32.10;;;;;;6082295;23;20233;-80
2022/03/26 16:09:17;;;;;;;15.18;10.95;;;33.00;32.30;;;;;;6074817;23;20199;-81
2022/03/26 16:11:46;;;;;;;19.52;12.57;;;32.40;32.60;;;;;;6074448;23;20039;-80
2022/03/26 16:14:12;;;;;;;14.88;11.88;;;32.00;32.50;;;;;;6075373;23;20198;-79
2022/03/26 16:16:38;;;;;;;16.13;11.52;;;31.80;33.00;;;;;;6081468;23;20023;-82
2022/03/26 16:19:08;;;;;;;14.23;11.45;;;31.70;32.70;;;;;;6132745;23;20101;-83
2022/03/26 16:21:34;;;;;;;17.90;12.30;;;31.60;32.80;;;;;;6132970;23;20067;-79
2022/03/26 16:24:01;;;;;;;17.65;12.07;;;31.80;32.80;;;;;;6133014;23;20224;-80
2022/03/26 16:26:27;;;;;;;16.05;11.05;;;31.60;32.80;;;;;;6135809;23;20296;-80
2022/03/26 16:28:53;;;;;;;15.73;10.90;;;30.70;33.00;;;;;;6151345;23;20089;-77
2022/03/26 16:31:30;;;;;;;19.10;11.77;;;30.40;33.30;;;;;;6174454;23;20024;-80
2022/03/26 16:33:57;;;;;;;14.10;10.35;;;30.00;33.50;;;;;;6179928;23;20083;-79
2022/03/26 16:36:24;;;;;;;17.95;11.68;;;30.10;33.50;;;;;;6181618;23;20010;-79
2022/03/26 16:38:51;;;;;;;18.92;12.48;;;29.20;33.60;;;;;;6172429;23;20099;-80
2022/03/26 16:41:17;;;;;;;19.15;11.65;;;29.00;33.90;;;;;;6172914;23;19997;-81
2022/03/26 16:44:05;;;;;;;15.52;11.00;;;28.10;34.30;;;;;;6139560;23;20324;-82
2022/03/26 16:46:55;;;;;;;16.60;11.50;;;28.10;34.70;;;;;;6158901;23;20342;-82
2022/03/26 16:49:22;;;;;;;17.65;10.88;;;27.20;34.70;;;;;;6164687;23;20024;-83
2022/03/26 16:51:51;;;;;;;20.73;11.50;;;25.90;35.30;;;;;;6138875;23;20002;-80
2022/03/26 16:54:18;;;;;;;22.73;11.85;;;24.40;36.30;;;;;;6165468;23;20001;-82
2022/03/26 16:56:45;;;;;;;16.27;10.40;;;23.30;37.10;;;;;;6165323;23;20016;-80
2022/03/26 16:59:43;;;;;;;18.77;10.48;;;22.60;37.80;;;;;;6165071;23;20075;-80
2022/03/26 17:02:33;;;;;;;15.00;10.15;;;21.80;38.70;;;;;;6163511;23;20399;-82
2022/03/26 17:05:33;;;;;;;16.42;10.27;;;21.20;39.40;;;;;;6217447;23;20083;-81
2022/03/26 17:07:59;;;;;;;18.52;10.15;;;20.60;39.70;;;;;;6194352;23;20044;-78
2022/03/26 17:10:46;;;;;;;18.38;9.60;;;20.30;40.10;;;;;;6168282;23;20001;-79
2022/03/26 17:13:34;;;;;;;18.50;10.07;;;20.00;40.60;;;;;;6168278;23;20199;-84
2022/03/26 17:16:07;;;;;;;15.55;9.00;;;19.60;40.30;;;;;;6217421;23;20021;-79
2022/03/26 17:18:32;;;;;;;14.43;9.32;;;19.40;40.70;;;;;;6193055;23;20256;-81
2022/03/26 17:21:02;;;;;;;14.70;8.20;;;19.20;40.90;;;;;;6167865;23;20005;-82
2022/03/26 17:23:28;;;;;;;17.83;9.45;;;19.00;40.80;;;;;;6218242;23;20016;-79
2022/03/26 17:26:05;;;;;;;18.88;9.45;;;18.70;40.80;;;;;;6193832;23;20001;-80
2022/03/26 17:28:31;;;;;;;15.07;8.55;;;18.60;41.60;;;;;;6168367;23;20012;-80
2022/03/26 17:30:57;;;;;;;15.63;9.02;;;18.40;41.90;;;;;;6193821;23;20060;-79
2022/03/26 17:33:23;;;;;;;16.73;8.10;;;18.20;41.40;;;;;;6217788;23;20036;-79
2022/03/26 17:36:08;;;;;;;15.77;8.30;;;18.10;41.70;;;;;;6167370;23;20032;-79
2022/03/26 17:38:34;;;;;;;13.73;7.70;;;17.80;42.10;;;;;;6167826;23;20008;-80
2022/03/26 17:41:03;;;;;;;15.90;8.23;;;17.70;42.50;;;;;;6153966;23;20012;-83
2022/03/26 17:43:33;;;;;;;15.27;8.77;;;17.50;42.70;;;;;;6220006;23;20196;-83
2022/03/26 17:46:06;;;;;;;15.18;8.63;;;17.30;42.80;;;;;;6168342;23;20037;-83
2022/03/26 17:48:33;;;;;;;17.45;9.60;;;17.10;43.20;;;;;;6168392;23;20056;-84
2022/03/26 17:50:58;;;;;;;16.25;9.18;;;16.90;43.40;;;;;;6167798;23;20016;-82
2022/03/26 17:53:25;;;;;;;18.48;10.18;;;16.70;43.90;;;;;;6173355;23;20013;-80
2022/03/26 17:55:51;;;;;;;20.23;11.60;;;16.60;44.80;;;;;;6149664;23;20011;-81
2022/03/26 17:58:18;;;;;;;18.85;9.85;;;16.40;44.60;;;;;;6169851;23;20005;-83
2022/03/26 18:00:45;;;;;;;16.60;9.32;;;16.30;46.10;;;;;;6167097;23;20032;-84
2022/03/26 18:03:23;;;;;;;13.63;7.80;;;16.20;46.70;;;;;;6217632;23;20040;-84
2022/03/26 18:05:50;;;;;;;19.65;8.15;;;16.00;46.30;;;;;;6167426;23;20127;-84
2022/03/26 18:08:16;;;;;;;19.08;9.10;;;15.90;46.40;;;;;;6217422;23;20027;-83
2022/03/26 18:10:50;;;;;;;16.50;9.00;;;15.90;47.00;;;;;;6166287;23;20199;-80
2022/03/26 18:13:16;;;;;;;17.95;8.82;;;15.80;46.70;;;;;;6166425;23;20009;-82
2022/03/26 18:15:54;;;;;;;13.95;7.90;;;15.60;47.10;;;;;;6192276;23;20065;-82
2022/03/26 18:21:35;;;;;;;15.70;8.15;;;15.30;47.70;;;;;;6106429;23;20280;-81
2022/03/26 18:24:00;;;;;;;19.33;8.85;;;15.20;48.00;;;;;;6160917;23;19997;-81
2022/03/26 18:26:26;;;;;;;18.55;8.73;;;15.10;48.10;;;;;;6168536;23;20019;-82
2022/03/26 18:28:52;;;;;;;17.70;8.32;;;15.00;48.60;;;;;;6194437;23;20005;-82
2022/03/26 18:31:19;;;;;;;22.23;9.27;;;14.90;48.80;;;;;;6166884;23;20032;-81
2022/03/26 18:33:50;;;;;;;;;;;14.80;49.30;;;;;;6194528;23;20009;-82
2022/03/26 18:36:16;;;;;;;;;;;14.70;49.10;;;;;;6193197;23;19954;-82
2022/03/26 18:38:43;;;;;;;18.17;8.15;;;14.60;49.80;;;;;;6167927;23;20102;-81
2022/03/26 18:41:09;;;;;;;17.67;8.52;;;14.60;49.50;;;;;;6193988;23;20035;-83
2022/03/26 18:44:08;;;;;;;18.55;8.30;;;14.50;49.80;;;;;;6142835;23;20035;-80
2022/03/26 18:50:07;;;;;;;18.52;9.38;;;14.40;50.40;;;;;;6166002;23;20009;-82
2022/03/26 18:52:33;;;;;;;14.95;8.40;;;14.30;50.30;;;;;;6192897;23;20001;-82
2022/03/26 18:54:59;;;;;;;17.70;9.70;;;14.20;50.70;;;;;;6193065;23;20012;-82
2022/03/26 18:57:25;;;;;;;22.20;9.95;;;14.20;51.30;;;;;;6191118;23;20111;-82
2022/03/26 18:59:52;;;;;;;21.02;9.93;;;14.10;50.60;;;;;;6193541;23;20009;-81
2022/03/26 19:02:18;;;;;;;20.60;10.27;;;14.10;50.80;;;;;;6192817;23;20270;-80
2022/03/26 19:04:45;;;;;;;19.13;10.07;;;14.10;51.20;;;;;;6193326;23;20005;-80
2022/03/26 19:07:11;;;;;;;20.05;10.25;;;14.00;51.20;;;;;;6191629;23;20005;-82
2022/03/26 19:09:37;;;;;;;20.83;10.77;;;13.90;51.50;;;;;;6167286;23;20005;-79
2022/03/26 19:12:13;;;;;;;20.60;10.45;;;13.90;51.90;;;;;;6191117;23;20194;-81
2022/03/26 19:14:40;;;;;;;26.27;10.93;;;13.70;52.00;;;;;;6193090;23;20005;-81
2022/03/26 19:17:05;;;;;;;22.27;11.23;;;13.60;52.50;;;;;;6189819;23;20013;-83
2022/03/26 19:19:31;;;;;;;23.80;11.07;;;13.40;53.00;;;;;;6167360;23;20044;-81
2022/03/26 19:21:59;;;;;;;25.15;12.02;;;13.40;53.00;;;;;;6191532;23;20079;-82
2022/03/26 19:24:26;;;;;;;22.90;10.65;;;13.30;53.20;;;;;;6166309;23;20139;-82
2022/03/26 19:26:51;;;;;;;27.10;11.55;;;13.30;53.20;;;;;;6167785;23;19997;-82
2022/03/26 19:32:03;;;;;;;26.23;11.45;;;13.30;53.30;;;;;;6190909;23;20017;-81
2022/03/26 19:34:29;;;;;;;25.70;11.20;;;13.30;53.40;;;;;;6168032;23;20000;-82
2022/03/26 19:36:55;;;;;;;21.75;10.60;;;13.20;53.50;;;;;;6166895;23;20224;-83
2022/03/26 19:39:21;;;;;;;28.70;11.10;;;13.20;53.50;;;;;;6168949;23;20101;-80
2022/03/26 19:41:46;;;;;;;23.88;10.70;;;13.20;53.60;;;;;;6167443;23;20048;-82
2022/03/26 19:44:12;;;;;;;23.73;11.05;;;13.20;53.80;;;;;;6169301;23;20005;-80
2022/03/26 19:46:38;;;;;;;21.10;10.40;;;13.10;53.80;;;;;;6195106;23;20240;-82
2022/03/26 19:49:06;;;;;;;21.55;10.15;;;13.10;54.00;;;;;;6193602;23;20044;-81
2022/03/26 19:51:32;;;;;;;24.00;10.70;;;13.00;54.00;;;;;;6170018;23;20104;-80
2022/03/26 19:54:01;;;;;;;22.10;10.02;;;13.00;54.10;;;;;;6169633;23;20179;-83
2022/03/26 19:56:28;;;;;;;21.20;10.65;;;13.00;54.10;;;;;;6168721;23;20278;-82
2022/03/26 19:58:57;;;;;;;20.90;9.82;;;13.00;54.20;;;;;;6168399;23;20012;-80
2022/03/26 20:01:24;;;;;;;28.88;11.18;;;12.80;54.40;;;;;;6168523;23;20009;-80
2022/03/26 20:03:51;;;;;;;24.35;11.45;;;12.80;54.50;;;;;;6136263;23;20156;-83
2022/03/26 20:06:19;;;;;;;20.42;9.90;;;12.70;54.80;;;;;;6110542;23;20334;-82
2022/03/26 20:08:45;;;;;;;21.85;10.38;;;12.60;55.00;;;;;;6135807;23;20280;-80
2022/03/26 20:11:13;;;;;;;26.90;10.50;;;12.50;55.20;;;;;;6109193;23;20094;-81
2022/03/26 20:13:45;;;;;;;24.63;10.48;;;12.50;55.30;;;;;;6109784;23;20061;-83
2022/03/26 20:18:59;;;;;;;21.38;10.35;;;12.40;55.80;;;;;;6134038;23;20013;-82
2022/03/26 20:21:28;;;;;;;26.00;11.80;;;12.20;55.80;;;;;;6086281;23;20002;-84
2022/03/26 20:23:54;;;;;;;26.65;11.52;;;12.20;55.80;;;;;;6134457;23;20217;-84
2022/03/26 20:26:20;;;;;;;19.25;10.15;;;12.30;55.80;;;;;;6109497;23;20010;-82
2022/03/26 20:28:46;;;;;;;24.88;10.15;;;12.30;55.90;;;;;;6133918;23;20054;-82
2022/03/26 20:35:11;;;;;;;26.48;10.07;;;12.10;56.20;;;;;;6072645;23;20065;-82
2022/03/26 20:37:37;;;;;;;;;;;11.90;57.40;;;;;;6064853;23;20011;-82
2022/03/26 20:40:18;;;;;;;27.85;11.75;;;11.70;58.20;;;;;;6064148;23;19894;-82
2022/03/26 20:45:27;;;;;;;20.58;11.25;;;11.60;58.10;;;;;;6085438;23;20066;-81
2022/03/26 20:47:53;;;;;;;26.15;12.40;;;11.50;58.60;;;;;;6213254;23;20064;-83
2022/03/26 20:57:56;;;;;;;22.48;10.90;;;11.00;59.40;;;;;;6229797;23;20006;-84
2022/03/26 21:00:31;;;;;;;25.92;12.48;;;10.90;59.90;;;;;;6199443;23;20062;-82
2022/03/26 21:02:58;;;;;;;26.67;12.75;;;10.80;60.30;;;;;;6199985;23;20353;-82
2022/03/26 21:05:27;;;;;;;27.35;11.50;;;10.80;60.30;;;;;;6226622;23;20051;-81
2022/03/26 21:07:54;;;;;;;26.02;11.82;;;10.90;60.10;;;;;;6199925;23;20005;-80
2022/03/26 21:10:26;;;;;;;23.75;11.35;;;10.80;60.00;;;;;;6198768;23;20012;-81
2022/03/26 21:13:04;;;;;;;26.48;11.95;;;10.80;60.30;;;;;;6225442;23;20019;-82
2022/03/26 21:18:51;;;;;;;31.38;14.35;;;10.60;61.70;;;;;;6209705;23;20309;-82
2022/03/26 21:21:20;;;;;;;30.35;12.70;;;10.50;62.90;;;;;;6198933;23;20015;-81
2022/03/26 21:27:29;;;;;;;28.67;13.70;;;10.40;62.90;;;;;;6225855;23;20015;-83
2022/03/26 21:29:58;;;;;;;26.90;13.80;;;10.30;63.40;;;;;;6199111;23;20198;-82
2022/03/26 21:32:24;;;;;;;32.97;14.45;;;10.20;63.40;;;;;;6197446;23;20012;-83
2022/03/26 21:34:50;;;;;;;30.92;13.82;;;10.20;63.70;;;;;;6198572;23;20011;-79
2022/03/26 21:37:18;;;;;;;27.83;12.70;;;10.10;63.40;;;;;;6199271;23;20003;-80
2022/03/26 21:40:21;;;;;;;27.40;13.52;;;10.10;63.40;;;;;;6200903;23;20000;-82
2022/03/26 21:42:49;;;;;;;28.35;13.65;;;10.10;63.90;;;;;;6201630;23;20009;-82
2022/03/26 21:45:16;;;;;;;26.55;13.50;;;10.00;64.60;;;;;;6171201;23;20009;-82
2022/03/26 21:47:45;;;;;;;33.53;15.77;;;9.90;64.30;;;;;;6198484;23;20086;-81
2022/03/26 21:50:11;;;;;;;34.30;16.25;;;9.90;65.20;;;;;;6198730;23;20026;-82
2022/03/26 21:52:40;;;;;;;29.65;14.10;;;9.90;65.20;;;;;;6225635;23;20050;-82
2022/03/26 21:55:07;;;;;;;;;;;9.80;65.50;;;;;;6198803;23;20005;-82
2022/03/26 21:57:36;;;;;;;30.33;14.90;;;9.80;65.50;;;;;;6199452;23;20086;-83
2022/03/26 22:00:04;;;;;;;27.42;12.77;;;9.70;66.00;;;;;;6224841;23;20267;-84
2022/03/26 22:02:34;;;;;;;26.58;12.65;;;9.70;66.10;;;;;;6223501;23;20008;-83